createdAt,value
2022-11-14T00:15:17.230Z,2.5
2022-11-14T01:35:34.016Z,1.2
2022-11-14T01:45:36.423Z,1.2
2022-11-14T02:05:41.234Z,1.2
2022-11-14T02:15:43.042Z,1.1
2022-11-14T02:25:45.101Z,0.9
2022-11-14T02:35:47.539Z,0.9
2022-11-14T02:55:52.400Z,0.6
2022-11-14T03:05:54.498Z,0.5
2022-11-14T03:25:58.863Z,0.7
2022-11-14T03:36:00.910Z,0.5
2022-11-14T03:46:03.381Z,0.3
2022-11-14T04:56:18.201Z,-0.1
2022-11-14T05:46:29.206Z,-0.5
2022-11-14T05:56:31.419Z,-0.6
2022-11-14T07:26:49.948Z,-0.1
2022-11-14T07:36:52.466Z,0
2022-11-14T07:46:54.250Z,0.1
2022-11-14T08:06:58.450Z,0.7
2022-11-14T08:37:04.645Z,1.7
2022-11-14T08:57:08.974Z,2.3
2022-11-14T09:07:11.493Z,2.7
2022-11-14T09:17:13.916Z,3.1
2022-11-14T09:27:15.684Z,3.5
2022-11-14T09:37:17.872Z,3.9
2022-11-14T09:47:20.919Z,4.4
2022-11-14T09:57:21.633Z,4.7
2022-11-14T10:07:23.760Z,5.1
2022-11-14T10:17:26.157Z,5.3
2022-11-14T10:27:28.346Z,5.8
2022-11-14T10:37:30.318Z,6.4
2022-11-14T10:47:32.024Z,7.2
2022-11-14T10:57:33.947Z,7.7
2022-11-14T11:07:35.761Z,7.8
2022-11-14T11:17:42.908Z,8
2022-11-14T11:27:39.994Z,8.4
2022-11-14T11:37:41.946Z,8.7
2022-11-14T11:47:44.163Z,9.2
2022-11-14T11:57:46.271Z,9.9
2022-11-14T12:07:48.115Z,9.6
2022-11-14T12:17:49.905Z,9.4
2022-11-14T12:27:52.276Z,10
2022-11-14T12:37:55.733Z,10
2022-11-14T12:47:57.182Z,11.1
2022-11-14T13:08:01.459Z,10.7
2022-11-14T13:18:03.250Z,10
2022-11-14T13:28:09.014Z,9.7
2022-11-14T13:38:07.612Z,11.9
2022-11-14T13:48:10.224Z,10.1
2022-11-14T13:58:12.038Z,9.7
2022-11-14T14:08:13.927Z,9.6
2022-11-14T14:18:15.727Z,10.2
2022-11-14T14:38:20.134Z,9.9
2022-11-14T14:48:22.582Z,10
2022-11-14T14:58:24.206Z,9.8
2022-11-14T15:08:26.007Z,9.6
2022-11-14T15:18:28.651Z,9.5
2022-11-14T15:28:30.461Z,9.3
2022-11-14T15:48:33.932Z,9.2
2022-11-14T15:58:36.323Z,9.2
2022-11-14T16:08:38.525Z,9.2
2022-11-14T16:18:40.810Z,9.2
2022-11-14T16:38:48.602Z,9.3
2022-11-14T16:58:48.656Z,9.2
2022-11-14T17:08:50.320Z,8.9
2022-11-14T17:48:58.934Z,8.5
2022-11-14T17:59:01.419Z,8.6
2022-11-14T18:09:03.674Z,8.4
2022-11-14T18:19:05.606Z,8.5
2022-11-14T18:29:07.952Z,8.6
2022-11-14T18:39:10.086Z,8.6
2022-11-14T18:49:12.714Z,8.6
2022-11-14T18:59:15.188Z,8.7
2022-11-14T19:29:21.494Z,8.7
2022-11-14T19:39:23.392Z,8.6
2022-11-14T19:39:30.277Z,8.6
2022-11-14T19:49:31.944Z,8.6
2022-11-14T19:59:33.927Z,8.6
2022-11-14T20:19:37.563Z,8.4
2022-11-14T20:29:39.957Z,8.1
2022-11-14T20:39:41.741Z,7.9
2022-11-14T20:49:44.303Z,7.6
2022-11-14T20:59:46.755Z,7.4
2022-11-14T21:09:48.925Z,7.1
2022-11-14T21:19:50.787Z,7.2
2022-11-14T21:29:53.272Z,7.4
2022-11-14T21:39:55.653Z,7.3
2022-11-14T21:50:01.042Z,7.4
2022-11-14T22:00:00.256Z,7.4
2022-11-14T22:10:02.755Z,7.5
2022-11-14T22:20:05.160Z,7.6
2022-11-14T22:30:07.032Z,7.6
2022-11-14T22:40:09.345Z,7.7
2022-11-14T22:50:11.231Z,7.8
2022-11-14T23:00:13.509Z,7.9
2022-11-14T23:10:15.160Z,7.9
2022-11-14T23:20:17.215Z,7.9
2022-11-14T23:30:19.531Z,7.9
2022-11-14T23:40:21.573Z,7.8
2022-11-14T23:50:23.672Z,7.8
